MOL Magnificence — V7SG5 — position and weather

sailwx.info

Track history (hours):
 
Tides and Currents Weather Stations Pressure Air Temp Water Temp Dewpoint Dewpoint Depression Visibility Wind Speed Wind Dir Waves Ship Positions

MOL Magnificence

Last reported at 2018-Jul-19 21:34 UTC. Time now 2018-Jul-22 00:51 UTC.
Position N 33°40' E 134°43'.

Length 302 m; draft 9.8 m.

Type: Cargo ship. MMSI: 538003648.

Date/timePositionNaut miles runAvg speedWind from/ knotsBaromVisibWave heightAir tempDewpointWater temp
2018-Jul-19 21:34N 33°40' E 134°43'116.9
2018-Jul-19 21:30N 33°41' E 134°44'1716.9
2018-Jul-19 20:32N 33°55' E 134°55'117.8
2018-Jul-19 20:27N 33°56' E 134°55'817.4
2018-Jul-19 20:00N 34°04' E 134°56'816.8
2018-Jul-19 19:31N 34°12' E 134°58'611.6
2018-Jul-19 19:00N 34°18' E 134°58'815.8
2018-Jul-19 18:31N 34°25' E 135°03'918.4
2018-Jul-19 18:01N 34°32' E 135°11'815.5
2018-Jul-19 17:30N 34°37' E 135°17'3 5.6
2018-Jul-19 17:00N 34°39' E 135°15'0 0.0
2018-Jul-19 16:28N 34°39' E 135°15'0 0.0
2018-Jul-19 15:58N 34°39' E 135°15'0 0.0
2018-Jul-19 15:28N 34°39' E 135°15'0 0.0
2018-Jul-19 14:58N 34°39' E 135°15'0 0.0
2018-Jul-19 14:25N 34°39' E 135°15'0 0.0
2018-Jul-19 13:28N 34°39' E 135°15'0 0.0
2018-Jul-19 12:58N 34°39' E 135°15'0 0.0
2018-Jul-19 12:28N 34°39' E 135°15'0 0.0
2018-Jul-19 11:58N 34°39' E 135°15'0 0.0
2018-Jul-19 11:25N 34°39' E 135°15'0 0.0
2018-Jul-19 10:58N 34°39' E 135°15'1 2.0
2018-Jul-19 10:31N 34°39' E 135°16'3 5.9
2018-Jul-19 10:00N 34°36' E 135°16'2 4.5
2018-Jul-19 09:30N 34°34' E 135°15'713.1
2018-Jul-19 09:00N 34°29' E 135°11'815.3
2018-Jul-19 08:30N 34°23' E 135°04'815.0
2018-Jul-19 08:00N 34°17' E 134°59'714.1
2018-Jul-19 07:31N 34°10' E 134°59'713.6
2018-Jul-19 07:00N 34°03' E 134°59'510.0
2018-Jul-19 06:30N 33°58' E 134°59'510.6
2018-Jul-19 06:00N 33°53' E 134°59'713.9
2018-Jul-19 05:30N 33°46' E 135°03'712.7
2018-Jul-19 04:57N 33°41' E 135°09'22615.5
2018-Jul-18 14:26N 34°42' E 139°31'716.5
2018-Jul-18 14:00N 34°49' E 139°35'917.7
2018-Jul-18 13:31N 34°57' E 139°39'917.8
2018-Jul-18 13:01N 35°05' E 139°43'714.6
2018-Jul-18 12:30N 35°12' E 139°46'611.5
2018-Jul-18 12:01N 35°18' E 139°44'612.7
2018-Jul-18 11:31N 35°24' E 139°42'1211.5
2018-Jul-18 10:30N 35°34' E 139°49'3 7.1
2018-Jul-18 10:00N 35°36' E 139°46'0 0.3
2018-Jul-18 09:29N 35°36' E 139°46'0 0.0
2018-Jul-18 08:59N 35°36' E 139°46'0 0.0
2018-Jul-18 08:29N 35°36' E 139°46'0 0.0
2018-Jul-18 07:59N 35°36' E 139°46'0 0.0
2018-Jul-18 07:26N 35°36' E 139°46'0 0.0
2018-Jul-18 06:59N 35°36' E 139°46'0 0.0
2018-Jul-18 06:29N 35°36' E 139°46'0 0.0
2018-Jul-18 05:59N 35°36' E 139°46'0 0.0
2018-Jul-18 05:26N 35°36' E 139°46'0 0.0
2018-Jul-18 04:59N 35°36' E 139°46'0 0.0
2018-Jul-18 04:29N 35°36' E 139°46'0 0.0
2018-Jul-18 03:59N 35°36' E 139°46'0 0.0
2018-Jul-18 03:29N 35°36' E 139°46'0 0.0
2018-Jul-18 02:59N 35°36' E 139°46'0 0.0
2018-Jul-18 02:29N 35°36' E 139°46'0 0.0
2018-Jul-18 01:59N 35°36' E 139°46'0 0.0
2018-Jul-18 01:29N 35°36' E 139°46'0 0.0
2018-Jul-18 00:59N 35°36' E 139°46'0 0.0
2018-Jul-18 00:29N 35°36' E 139°46'0 0.0
2018-Jul-17 23:53N 35°36' E 139°46'0 0.0
2018-Jul-17 23:29N 35°36' E 139°46'0 0.0
2018-Jul-17 22:56N 35°36' E 139°46'0 0.2
2018-Jul-17 22:26N 35°36' E 139°46'2 4.6
2018-Jul-17 22:00N 35°35' E 139°48'5 9.1
2018-Jul-17 21:30N 35°32' E 139°52'611.1
2018-Jul-17 21:01N 35°27' E 139°49'713.8
2018-Jul-17 20:31N 35°21' E 139°45'611.6
2018-Jul-17 20:00N 35°15' E 139°47'612.3
2018-Jul-17 19:30N 35°09' E 139°47'4 8.7
2018-Jul-17 19:00N 35°05' E 139°46'4 8.6
2018-Jul-17 18:30N 35°01' E 139°44'510.0
2018-Jul-17 18:00N 34°56' E 139°43'5 9.2
2018-Jul-17 17:30N 34°52' E 139°46'  
2018-Jul-13 00:00N 47°54' W 174°48'48619.5 270 / 251016.0 5.4 10.0 9.0
2018-Jul-11 23:00N 48°00' W 162°42'49019.6 230 / 151019.0 1.1 11.0 11.0
2018-Jul-10 22:00N 46°42' W 150°48'   230 / 151025.1 1.1 14.0 13.0
Track history (hours):
 
Tides and Currents Weather Stations Pressure Air Temp Water Temp Dewpoint Dewpoint Depression Visibility Wind Speed Wind Dir Waves Ship Positions

MOL Magnificence

Last reported at 2018-Jul-19 21:34 UTC. Time now 2018-Jul-22 00:51 UTC.
Position N 33°40' E 134°43'.

Length 302 m; draft 9.8 m.

Type: Cargo ship. MMSI: 538003648.

Date/timePositionNaut miles runAvg speedWind from/ knotsBaromVisibWave heightAir tempDewpointWater temp
2018-Jul-19 21:34N 33°40' E 134°43'116.9
2018-Jul-19 21:30N 33°41' E 134°44'1716.9
2018-Jul-19 20:32N 33°55' E 134°55'117.8
2018-Jul-19 20:27N 33°56' E 134°55'817.4
2018-Jul-19 20:00N 34°04' E 134°56'816.8
2018-Jul-19 19:31N 34°12' E 134°58'611.6
2018-Jul-19 19:00N 34°18' E 134°58'815.8
2018-Jul-19 18:31N 34°25' E 135°03'918.4
2018-Jul-19 18:01N 34°32' E 135°11'815.5
2018-Jul-19 17:30N 34°37' E 135°17'3 5.6
2018-Jul-19 17:00N 34°39' E 135°15'0 0.0
2018-Jul-19 16:28N 34°39' E 135°15'0 0.0
2018-Jul-19 15:58N 34°39' E 135°15'0 0.0
2018-Jul-19 15:28N 34°39' E 135°15'0 0.0
2018-Jul-19 14:58N 34°39' E 135°15'0 0.0
2018-Jul-19 14:25N 34°39' E 135°15'0 0.0
2018-Jul-19 13:28N 34°39' E 135°15'0 0.0
2018-Jul-19 12:58N 34°39' E 135°15'0 0.0
2018-Jul-19 12:28N 34°39' E 135°15'0 0.0
2018-Jul-19 11:58N 34°39' E 135°15'0 0.0
2018-Jul-19 11:25N 34°39' E 135°15'0 0.0
2018-Jul-19 10:58N 34°39' E 135°15'1 2.0
2018-Jul-19 10:31N 34°39' E 135°16'3 5.9
2018-Jul-19 10:00N 34°36' E 135°16'2 4.5
2018-Jul-19 09:30N 34°34' E 135°15'713.1
2018-Jul-19 09:00N 34°29' E 135°11'815.3
2018-Jul-19 08:30N 34°23' E 135°04'815.0
2018-Jul-19 08:00N 34°17' E 134°59'714.1
2018-Jul-19 07:31N 34°10' E 134°59'713.6
2018-Jul-19 07:00N 34°03' E 134°59'510.0
2018-Jul-19 06:30N 33°58' E 134°59'510.6
2018-Jul-19 06:00N 33°53' E 134°59'713.9
2018-Jul-19 05:30N 33°46' E 135°03'712.7
2018-Jul-19 04:57N 33°41' E 135°09'22615.5
2018-Jul-18 14:26N 34°42' E 139°31'716.5
2018-Jul-18 14:00N 34°49' E 139°35'917.7
2018-Jul-18 13:31N 34°57' E 139°39'917.8
2018-Jul-18 13:01N 35°05' E 139°43'714.6
2018-Jul-18 12:30N 35°12' E 139°46'611.5
2018-Jul-18 12:01N 35°18' E 139°44'612.7
2018-Jul-18 11:31N 35°24' E 139°42'1211.5
2018-Jul-18 10:30N 35°34' E 139°49'3 7.1
2018-Jul-18 10:00N 35°36' E 139°46'0 0.3
2018-Jul-18 09:29N 35°36' E 139°46'0 0.0
2018-Jul-18 08:59N 35°36' E 139°46'0 0.0
2018-Jul-18 08:29N 35°36' E 139°46'0 0.0
2018-Jul-18 07:59N 35°36' E 139°46'0 0.0
2018-Jul-18 07:26N 35°36' E 139°46'0 0.0
2018-Jul-18 06:59N 35°36' E 139°46'0 0.0
2018-Jul-18 06:29N 35°36' E 139°46'0 0.0
2018-Jul-18 05:59N 35°36' E 139°46'0 0.0
2018-Jul-18 05:26N 35°36' E 139°46'0 0.0
2018-Jul-18 04:59N 35°36' E 139°46'0 0.0
2018-Jul-18 04:29N 35°36' E 139°46'0 0.0
2018-Jul-18 03:59N 35°36' E 139°46'0 0.0
2018-Jul-18 03:29N 35°36' E 139°46'0 0.0
2018-Jul-18 02:59N 35°36' E 139°46'0 0.0
2018-Jul-18 02:29N 35°36' E 139°46'0 0.0
2018-Jul-18 01:59N 35°36' E 139°46'0 0.0
2018-Jul-18 01:29N 35°36' E 139°46'0 0.0
2018-Jul-18 00:59N 35°36' E 139°46'0 0.0
2018-Jul-18 00:29N 35°36' E 139°46'0 0.0
2018-Jul-17 23:53N 35°36' E 139°46'0 0.0
2018-Jul-17 23:29N 35°36' E 139°46'0 0.0
2018-Jul-17 22:56N 35°36' E 139°46'0 0.2
2018-Jul-17 22:26N 35°36' E 139°46'2 4.6
2018-Jul-17 22:00N 35°35' E 139°48'5 9.1
2018-Jul-17 21:30N 35°32' E 139°52'611.1
2018-Jul-17 21:01N 35°27' E 139°49'713.8
2018-Jul-17 20:31N 35°21' E 139°45'611.6
2018-Jul-17 20:00N 35°15' E 139°47'612.3
2018-Jul-17 19:30N 35°09' E 139°47'4 8.7
2018-Jul-17 19:00N 35°05' E 139°46'4 8.6
2018-Jul-17 18:30N 35°01' E 139°44'510.0
2018-Jul-17 18:00N 34°56' E 139°43'5 9.2
2018-Jul-17 17:30N 34°52' E 139°46'  
2018-Jul-13 00:00N 47°54' W 174°48'48619.5 270 / 251016.0 5.4 10.0 9.0
2018-Jul-11 23:00N 48°00' W 162°42'49019.6 230 / 151019.0 1.1 11.0 11.0
2018-Jul-10 22:00N 46°42' W 150°48'   230 / 151025.1 1.1 14.0 13.0

Dump ship's entire track history